EGLC Airport Information

Runway Information
Runway 10 Length 4948 ft width 98 ft
Elevation 16 ft Threshold 358 ft Heading 93
Runway 28 Length 4948 ft Width 98 ft
Elevation 19 ft Threshold 211 ft Heading 273
Airport Frequencies
Type APP Name APP Frequency 132.7 MHZ
Type ATIS Name ATIS Frequency 136.35 MHZ
Type GND Name GND Frequency 121.825 MHZ
Type TWR Name TWR Frequency 118.075 MHZ
Airport Navaids
Type NDB Name City Frequency 322 KHZ
Airport Weather Information & NOTAM
ADDS - METARS form results

(0208 UTC 22 March 2019)
Data provider http://aviationweather.gov/metar/data/
 
METAR text: EGLC 220150Z AUTO 18005KT 140V230 9999 OVC019 12/07 Q1030
Conditions at: EGLC (LONDON CITY AIRP, GB) observed 0150 UTC 22 March 2019
Temperature: 12.0°C (54°F)
Dewpoint: 7.0°C (45°F) [RH = 71%]
Pressure (altimeter): 30.41 inches Hg (1030.0 mb)
Winds: from the S (180 degrees) at 6 MPH (5 knots; 2.6 m/s)
Visibility: 6 or more miles (10+ km)
Ceiling: 1900 feet AGL
Clouds: overcast cloud deck at 1900 feet AGL
Weather: no significant weather observed at this time

METAR text: EGLC 220120Z AUTO 15005KT 110V180 9999 OVC020 12/08 Q1030
Conditions at: EGLC (LONDON CITY AIRP, GB) observed 0120 UTC 22 March 2019
Temperature: 12.0°C (54°F)
Dewpoint: 8.0°C (46°F) [RH = 76%]
Pressure (altimeter): 30.41 inches Hg (1030.0 mb)
Winds: from the SSE (150 degrees) at 6 MPH (5 knots; 2.6 m/s)
Visibility: 6 or more miles (10+ km)
Ceiling: 2000 feet AGL
Clouds: overcast cloud deck at 2000 feet AGL
Weather: no significant weather observed at this time

Forecast for: EGLC (LONDON CITY AIRP, GB)
Text: TAF EGLC 211655Z 2118/2121 24008KT 9999 BKN025
Forecast period: 1800 to 2100 UTC 21 March 2019
Forecast type: FROM: standard forecast or significant change
Winds: from the WSW (240 degrees) at 9 MPH (8 knots; 4.1 m/s)
Visibility: 6 or more miles 10+ km)
Ceiling: 2500 feet AGL
Clouds: broken clouds at 2500 feet AGL
Weather: no significant weather forecast for this period